createdAt,value
2018-05-06T00:01:16.816Z,2.2
2018-05-06T00:04:16.794Z,2.4
2018-05-06T00:07:16.927Z,2.2
2018-05-06T00:10:16.755Z,2.2
2018-05-06T00:13:17.091Z,3.2
2018-05-06T00:16:16.763Z,2
2018-05-06T00:19:16.840Z,2.1
2018-05-06T00:22:17.010Z,2.3
2018-05-06T00:25:16.784Z,2.1
2018-05-06T00:28:16.708Z,2.1
2018-05-06T00:31:16.992Z,2.5
2018-05-06T00:34:16.729Z,2.1
2018-05-06T00:37:16.745Z,2.1
2018-05-06T00:40:16.846Z,2.3
2018-05-06T00:43:16.825Z,2.1
2018-05-06T00:46:17.191Z,2.1
2018-05-06T00:49:16.935Z,2.4
2018-05-06T00:52:16.752Z,2.3
2018-05-06T00:55:16.875Z,2.2
2018-05-06T00:58:16.816Z,2.1
2018-05-06T01:01:16.935Z,2.2
2018-05-06T01:04:16.711Z,2.2
2018-05-06T01:07:16.932Z,2.1
2018-05-06T01:10:16.906Z,2
2018-05-06T01:13:16.986Z,2
2018-05-06T01:16:16.849Z,2.4
2018-05-06T01:19:16.964Z,2.2
2018-05-06T01:22:16.746Z,2.1
2018-05-06T01:25:16.943Z,2.2
2018-05-06T01:28:16.871Z,2.4
2018-05-06T01:31:16.940Z,2.3
2018-05-06T01:34:16.754Z,2.2
2018-05-06T01:37:16.890Z,2.2
2018-05-06T01:40:16.697Z,2.3
2018-05-06T01:43:16.871Z,2.2
2018-05-06T01:46:16.743Z,2.6
2018-05-06T01:49:16.800Z,2.2
2018-05-06T01:52:16.807Z,2.2
2018-05-06T01:55:16.874Z,2.3
2018-05-06T01:58:16.727Z,2.3
2018-05-06T02:01:16.742Z,2.2
2018-05-06T02:04:16.716Z,2
2018-05-06T02:07:16.851Z,2.7
2018-05-06T02:10:16.840Z,2.5
2018-05-06T02:13:16.724Z,2.3
2018-05-06T02:16:16.693Z,2.6
2018-05-06T02:19:16.762Z,2.2
2018-05-06T02:22:17.095Z,2.3
2018-05-06T02:25:16.822Z,2.3
2018-05-06T02:28:16.876Z,2.2
2018-05-06T02:31:16.895Z,2.2
2018-05-06T02:34:16.800Z,2.2
2018-05-06T02:37:16.961Z,2.1
2018-05-06T02:40:16.871Z,2.2
2018-05-06T02:43:16.864Z,2.2
2018-05-06T02:46:16.745Z,2.2
2018-05-06T02:49:16.848Z,2
2018-05-06T02:52:16.767Z,2
2018-05-06T02:55:16.772Z,2.3
2018-05-06T02:58:16.765Z,2.2
2018-05-06T03:01:16.919Z,2.1
2018-05-06T03:04:16.884Z,2.1
2018-05-06T03:07:16.791Z,2
2018-05-06T03:10:16.746Z,2
2018-05-06T03:13:16.911Z,2.2
2018-05-06T03:16:16.919Z,2.1
2018-05-06T03:19:16.886Z,2.2
2018-05-06T03:22:16.848Z,2.2
2018-05-06T03:25:16.879Z,2.6
2018-05-06T03:28:16.630Z,2.3
2018-05-06T03:31:16.887Z,2.2
2018-05-06T03:34:16.785Z,2
2018-05-06T03:37:16.750Z,1.9
2018-05-06T03:40:16.712Z,2.1
2018-05-06T03:43:16.817Z,2
2018-05-06T03:46:16.740Z,2
2018-05-06T03:49:16.912Z,2.1
2018-05-06T03:52:16.963Z,2
2018-05-06T03:55:16.895Z,2.1
2018-05-06T03:58:16.878Z,2.2
2018-05-06T04:01:16.799Z,2.2
2018-05-06T04:04:16.645Z,2.1
2018-05-06T04:07:16.678Z,2.1
2018-05-06T04:10:16.918Z,2
2018-05-06T04:13:16.899Z,2.4
2018-05-06T04:16:16.957Z,2.1
2018-05-06T04:19:16.795Z,2
2018-05-06T04:22:16.659Z,2.2
2018-05-06T04:25:16.898Z,2
2018-05-06T04:28:16.673Z,2
2018-05-06T04:31:16.694Z,2.1
2018-05-06T04:34:16.911Z,2.1
2018-05-06T04:37:16.913Z,2.1
2018-05-06T04:40:16.608Z,2.1
2018-05-06T04:43:16.871Z,2.2
2018-05-06T04:46:16.837Z,2.1
2018-05-06T04:49:16.792Z,2.1
2018-05-06T04:52:16.641Z,2.2
2018-05-06T04:55:16.680Z,2.3
2018-05-06T04:58:16.604Z,2
2018-05-06T05:01:16.766Z,2
2018-05-06T05:04:16.899Z,2.1
2018-05-06T05:07:16.781Z,1.9
2018-05-06T05:10:16.626Z,2
2018-05-06T05:13:16.759Z,2.1
2018-05-06T05:16:16.630Z,2
2018-05-06T05:19:16.853Z,2.1
2018-05-06T05:22:16.794Z,1.9
2018-05-06T05:25:16.961Z,2
2018-05-06T05:28:16.838Z,2
2018-05-06T05:31:16.958Z,2
2018-05-06T05:34:16.676Z,1.9
2018-05-06T05:37:17.016Z,2.2
2018-05-06T05:40:16.834Z,2.1
2018-05-06T05:43:16.660Z,2
2018-05-06T05:46:16.874Z,1.9
2018-05-06T05:49:16.678Z,1.9
2018-05-06T05:52:16.661Z,2.1
2018-05-06T05:55:16.825Z,2
2018-05-06T05:58:16.687Z,2.2
2018-05-06T06:01:16.685Z,2
2018-05-06T06:04:16.774Z,2
2018-05-06T06:07:16.887Z,1.9
2018-05-06T06:10:21.673Z,1.9
2018-05-06T06:13:16.798Z,3
2018-05-06T06:16:16.725Z,1.9
2018-05-06T06:19:16.838Z,2
2018-05-06T06:22:16.623Z,2
2018-05-06T06:25:16.697Z,2.2
2018-05-06T06:28:16.796Z,1.9
2018-05-06T06:31:16.711Z,2
2018-05-06T06:34:16.693Z,1.9
2018-05-06T06:37:16.972Z,2
2018-05-06T06:40:16.796Z,1.8
2018-05-06T06:43:16.881Z,2.5
2018-05-06T06:46:16.859Z,2
2018-05-06T06:49:16.643Z,1.8
2018-05-06T06:52:16.760Z,1.8
2018-05-06T06:55:16.677Z,2.2
2018-05-06T06:58:16.842Z,2
2018-05-06T07:01:16.687Z,1.9
2018-05-06T07:04:16.552Z,2
2018-05-06T07:07:16.791Z,2
2018-05-06T07:10:16.795Z,1.8
2018-05-06T07:13:16.675Z,2
2018-05-06T07:16:16.712Z,1.9
2018-05-06T07:19:17.325Z,1.8
2018-05-06T07:22:16.658Z,1.9
2018-05-06T07:25:16.708Z,2.1
2018-05-06T07:28:16.932Z,2.1
2018-05-06T07:31:16.825Z,2.1
2018-05-06T07:34:16.965Z,1.9
2018-05-06T07:37:16.980Z,1.8
2018-05-06T07:40:16.806Z,1.9
2018-05-06T07:43:16.639Z,1.9
2018-05-06T07:46:16.850Z,1.8
2018-05-06T07:49:16.856Z,2.1
2018-05-06T07:52:16.838Z,1.7
2018-05-06T07:55:16.628Z,1.8
2018-05-06T07:58:16.577Z,1.9
2018-05-06T08:01:16.641Z,2.1
2018-05-06T08:04:16.605Z,1.8
2018-05-06T08:07:16.714Z,1.9
2018-05-06T08:10:16.699Z,2
2018-05-06T08:13:16.576Z,1.8
2018-05-06T08:16:17.520Z,2.3
2018-05-06T08:19:16.760Z,2.4
2018-05-06T08:22:16.800Z,2.1
2018-05-06T08:25:16.902Z,6
2018-05-06T08:28:16.673Z,6.6
2018-05-06T08:31:16.770Z,4.1
2018-05-06T08:34:16.633Z,8.1
2018-05-06T08:37:16.741Z,8.9
2018-05-06T08:40:16.857Z,9.5
2018-05-06T08:43:16.932Z,9.1
2018-05-06T08:46:17.262Z,8.6
2018-05-06T08:49:16.853Z,6.5
2018-05-06T08:52:16.753Z,6.6
2018-05-06T08:55:16.787Z,5.3
2018-05-06T08:58:16.899Z,6.5
2018-05-06T09:01:16.802Z,7.7
2018-05-06T09:04:16.701Z,5.5
2018-05-06T09:07:16.773Z,5.6
2018-05-06T09:10:16.794Z,6.4
2018-05-06T09:13:16.708Z,4.7
2018-05-06T09:16:16.687Z,5.3
2018-05-06T09:19:16.624Z,6.9
2018-05-06T09:22:16.567Z,3.6
2018-05-06T09:25:17.203Z,10.6
2018-05-06T09:28:16.818Z,7.3
2018-05-06T09:31:16.700Z,6.8
2018-05-06T09:34:16.490Z,6.5
2018-05-06T09:37:16.787Z,4.3
2018-05-06T09:40:16.551Z,6.3
2018-05-06T09:43:16.711Z,5.7
2018-05-06T09:46:16.573Z,6.3
2018-05-06T09:49:16.664Z,7.4
2018-05-06T09:52:16.856Z,4.7
2018-05-06T09:55:16.601Z,7
2018-05-06T09:58:16.551Z,5.3
2018-05-06T10:01:16.826Z,4.7
2018-05-06T10:04:16.694Z,3.9
2018-05-06T10:07:16.707Z,6.9
2018-05-06T10:10:16.706Z,6.2
2018-05-06T10:13:16.920Z,5.2
2018-05-06T10:16:16.581Z,6.3
2018-05-06T10:19:16.600Z,6.2
2018-05-06T10:22:17.292Z,4.9
2018-05-06T10:25:16.689Z,6.7
2018-05-06T10:28:16.669Z,6
2018-05-06T10:31:16.661Z,4.4
2018-05-06T10:34:16.729Z,4.6
2018-05-06T10:37:16.622Z,6
2018-05-06T10:40:16.654Z,5.9
2018-05-06T10:43:16.989Z,9.5
2018-05-06T10:46:16.587Z,6.3
2018-05-06T10:49:18.334Z,4.6
2018-05-06T10:52:16.519Z,6.4
2018-05-06T10:55:16.664Z,4.1
2018-05-06T10:58:16.773Z,6.9
2018-05-06T11:01:16.539Z,4.7
2018-05-06T11:04:16.838Z,7.2
2018-05-06T11:07:16.670Z,7.4
2018-05-06T11:10:17.721Z,6.4
2018-05-06T11:13:16.803Z,5.5
2018-05-06T11:16:16.540Z,8.1
2018-05-06T11:19:16.696Z,6.5
2018-05-06T11:22:16.547Z,7.2
2018-05-06T11:25:16.555Z,6.7
2018-05-06T11:28:16.543Z,5.7
2018-05-06T11:31:16.483Z,3.9
2018-05-06T11:34:16.709Z,4.8
2018-05-06T11:37:16.534Z,5.1
2018-05-06T11:40:16.758Z,5.7
2018-05-06T11:43:16.827Z,8.2
2018-05-06T11:46:16.535Z,5.2
2018-05-06T11:49:16.688Z,3.6
2018-05-06T11:52:16.769Z,3.8
2018-05-06T11:55:16.550Z,5.5
2018-05-06T11:58:17.330Z,3.7
2018-05-06T12:01:16.667Z,5.1
2018-05-06T12:04:16.488Z,3.9
2018-05-06T12:07:16.706Z,5.7
2018-05-06T12:10:16.679Z,4.4
2018-05-06T12:13:16.709Z,4.3
2018-05-06T12:16:16.511Z,3.7
2018-05-06T12:19:16.669Z,4.9
2018-05-06T12:22:16.531Z,4
2018-05-06T12:25:16.609Z,6
2018-05-06T12:28:16.548Z,3.9
2018-05-06T12:31:16.564Z,3.2
2018-05-06T12:34:16.576Z,4.4
2018-05-06T12:37:16.729Z,4.7
2018-05-06T12:40:16.544Z,3.6
2018-05-06T12:43:17.800Z,3.7
2018-05-06T12:46:16.596Z,3.4
2018-05-06T12:49:16.762Z,3.2
2018-05-06T12:52:16.602Z,3.8
2018-05-06T12:55:17.296Z,3.7
2018-05-06T12:58:16.572Z,3.9
2018-05-06T13:01:16.648Z,4.6
2018-05-06T13:04:16.617Z,3.8
2018-05-06T13:07:16.610Z,4.5
2018-05-06T13:10:16.704Z,4.7
2018-05-06T13:13:16.682Z,4.4
2018-05-06T13:16:21.654Z,5.3
2018-05-06T13:19:16.637Z,5.7
2018-05-06T13:22:16.766Z,3.8
2018-05-06T13:25:16.723Z,3.8
2018-05-06T13:28:16.789Z,4.5
2018-05-06T13:35:13.450Z,7.8
2018-05-06T13:38:13.693Z,3.2
2018-05-06T13:41:13.563Z,4.5
2018-05-06T13:46:36.160Z,5.5
2018-05-06T13:50:02.716Z,4.1
2018-05-06T13:52:36.127Z,7.6
2018-05-06T13:55:36.557Z,4.4
2018-05-06T13:58:35.972Z,5.2
2018-05-06T14:01:36.104Z,4.9
2018-05-06T14:04:36.019Z,5
2018-05-06T14:07:36.048Z,5.5
2018-05-06T14:10:36.322Z,3.5
2018-05-06T14:13:36.028Z,4
2018-05-06T14:16:36.225Z,3.8
2018-05-06T14:19:36.111Z,3.5
2018-05-06T14:22:36.134Z,4
2018-05-06T14:25:36.105Z,4.6
2018-05-06T14:28:36.024Z,4.1
2018-05-06T14:31:36.021Z,4.2
2018-05-06T14:34:35.933Z,4.8
2018-05-06T14:37:36.085Z,5.3
2018-05-06T14:40:36.020Z,4.8
2018-05-06T14:43:35.910Z,2.7
2018-05-06T14:46:36.287Z,3.3
2018-05-06T14:49:36.208Z,2.7
2018-05-06T14:52:36.013Z,3.2
2018-05-06T14:55:35.887Z,3.8
2018-05-06T14:58:36.015Z,4.5
2018-05-06T15:01:36.059Z,2.8
2018-05-06T15:04:36.206Z,2.6
2018-05-06T15:07:36.182Z,3.1
2018-05-06T15:10:37.228Z,3
2018-05-06T15:13:36.136Z,2.8
2018-05-06T15:16:36.261Z,3.2
2018-05-06T15:19:36.169Z,3.6
2018-05-06T15:22:36.210Z,2.6
2018-05-06T15:25:36.062Z,3.4
2018-05-06T15:28:36.073Z,6.3
2018-05-06T15:31:35.995Z,3.3
2018-05-06T15:34:36.156Z,4.9
2018-05-06T15:37:36.043Z,4.1
2018-05-06T15:40:36.230Z,4.5
2018-05-06T15:43:36.184Z,4.3
2018-05-06T15:46:36.092Z,4.7
2018-05-06T15:49:36.151Z,4.8
2018-05-06T15:52:36.109Z,3.7
2018-05-06T15:55:36.169Z,3.3
2018-05-06T15:58:36.045Z,5.3
2018-05-06T16:06:18.042Z,4.3
2018-05-06T16:09:18.125Z,3.5
2018-05-06T16:12:18.082Z,3.2
2018-05-06T16:15:18.172Z,4.2
2018-05-06T16:24:53.506Z,5.7
2018-05-06T16:29:40.978Z,3.5
2018-05-06T16:32:39.992Z,3.5
2018-05-06T16:35:39.923Z,5.2
2018-05-06T16:38:39.924Z,4.1
2018-05-06T16:41:39.897Z,3.3
2018-05-06T16:44:40.151Z,4.4
2018-05-06T16:47:40.019Z,3.7
2018-05-06T16:50:40.112Z,4.2
2018-05-06T17:00:08.463Z,3.3
2018-05-06T17:03:08.368Z,3.6
2018-05-06T17:06:08.389Z,7.3
2018-05-06T17:09:08.411Z,4.9
2018-05-06T17:12:08.427Z,6.4
2018-05-06T17:15:08.396Z,4.9
2018-05-06T17:18:08.324Z,3.7
2018-05-06T17:21:08.379Z,3.1
2018-05-06T17:24:08.386Z,3
2018-05-06T17:27:08.359Z,5.7
2018-05-06T17:30:08.399Z,4.2
2018-05-06T17:33:08.353Z,3.2
2018-05-06T17:36:08.365Z,4.8
2018-05-06T17:39:08.377Z,5.8
2018-05-06T17:42:08.687Z,6.8
2018-05-06T17:45:08.725Z,5
2018-05-06T17:48:08.524Z,3.9
2018-05-06T17:51:08.623Z,4.3
2018-05-06T17:54:08.598Z,5.9
2018-05-06T17:57:08.738Z,4.3
2018-05-06T18:00:08.561Z,4.6
2018-05-06T18:03:08.534Z,5.1
2018-05-06T18:06:08.425Z,3.4
2018-05-06T18:09:08.550Z,4.2
2018-05-06T18:12:08.620Z,3.5
2018-05-06T18:15:08.444Z,4.7
2018-05-06T18:18:08.548Z,4.8
2018-05-06T18:22:58.565Z,4.7
2018-05-06T18:25:58.481Z,6.3
2018-05-06T18:28:58.505Z,6.2
2018-05-06T18:31:58.750Z,5.5
2018-05-06T18:34:58.828Z,5.1
2018-05-06T18:37:58.724Z,4.6
2018-05-06T18:40:58.644Z,7.1
2018-05-06T18:43:58.484Z,4.3
2018-05-06T18:46:59.551Z,5.2
2018-05-06T18:49:58.770Z,3.3
2018-05-06T18:52:58.529Z,3.9
2018-05-06T18:55:58.595Z,5.4
2018-05-06T18:58:58.508Z,4.4
2018-05-06T19:01:58.584Z,6.5
2018-05-06T19:04:58.780Z,4.7
2018-05-06T19:07:58.657Z,4.3
2018-05-06T19:10:58.660Z,4.6
2018-05-06T19:13:58.624Z,6.7
2018-05-06T19:16:59.131Z,3.2
2018-05-06T19:20:08.580Z,3.9
2018-05-06T19:22:58.624Z,5.1
2018-05-06T19:25:58.665Z,5.8
2018-05-06T19:28:58.591Z,4.5
2018-05-06T19:31:58.649Z,4
2018-05-06T19:34:58.659Z,6.7
2018-05-06T19:37:58.677Z,3.5
2018-05-06T19:40:58.505Z,8.8
2018-05-06T19:43:58.546Z,5.4
2018-05-06T19:46:59.481Z,5.1
2018-05-06T19:49:58.635Z,6.3
2018-05-06T19:52:58.593Z,4.3
2018-05-06T19:55:58.477Z,7
2018-05-06T19:58:58.803Z,7
2018-05-06T20:01:58.559Z,5.9
2018-05-06T20:04:58.763Z,4.7
2018-05-06T20:07:58.543Z,4.8
2018-05-06T20:10:58.683Z,5
2018-05-06T20:13:58.629Z,5.2
2018-05-06T20:16:58.605Z,6.7
2018-05-06T20:19:58.484Z,4.3
2018-05-06T20:22:58.573Z,3.7
2018-05-06T20:25:58.460Z,5
2018-05-06T20:28:58.473Z,4.9
2018-05-06T20:31:59.864Z,4.5
2018-05-06T20:34:58.483Z,5.2
2018-05-06T20:37:58.403Z,5
2018-05-06T20:40:58.556Z,4.5
2018-05-06T20:43:58.630Z,4
2018-05-06T20:46:58.803Z,6.6
2018-05-06T20:49:58.607Z,3.4
2018-05-06T20:52:58.408Z,3.7
2018-05-06T20:55:58.424Z,3.4
2018-05-06T20:58:58.508Z,4
2018-05-06T21:01:58.694Z,4.2
2018-05-06T21:04:58.591Z,5
2018-05-06T21:07:58.585Z,4.6
2018-05-06T21:10:58.601Z,3.9
2018-05-06T21:13:58.441Z,5.3
2018-05-06T21:16:58.530Z,4.5
2018-05-06T21:19:58.596Z,5.4
2018-05-06T21:22:58.661Z,4.2
2018-05-06T21:25:58.662Z,5.2
2018-05-06T21:28:58.522Z,3.4
2018-05-06T21:31:58.343Z,4.9
2018-05-06T21:34:58.405Z,3.8
2018-05-06T21:37:58.550Z,4.9
2018-05-06T21:40:58.529Z,3.5
2018-05-06T21:43:58.489Z,3.5
2018-05-06T21:46:58.500Z,4.6
2018-05-06T21:50:08.406Z,4.4
2018-05-06T21:52:59.358Z,3.5
2018-05-06T21:55:58.529Z,3.7
2018-05-06T21:58:58.552Z,3.4
2018-05-06T22:01:58.635Z,5.1
2018-05-06T22:04:58.581Z,3.4
2018-05-06T22:07:58.507Z,3.9
2018-05-06T22:10:58.481Z,2.7
2018-05-06T22:13:58.491Z,3.5
2018-05-06T22:16:58.442Z,4.3
2018-05-06T22:19:58.493Z,3.2
2018-05-06T22:22:58.509Z,3.7
2018-05-06T22:25:58.446Z,2.8
2018-05-06T22:28:58.502Z,2.5
2018-05-06T22:31:59.203Z,3.8
2018-05-06T22:34:58.585Z,3.7
2018-05-06T22:37:58.452Z,3
2018-05-06T22:40:58.554Z,2.7
2018-05-06T22:43:58.448Z,2.8
2018-05-06T22:46:58.495Z,3.7
2018-05-06T22:49:58.366Z,2.8
2018-05-06T22:52:58.569Z,7
2018-05-06T22:55:58.552Z,3.8
2018-05-06T22:58:58.478Z,2.8
2018-05-06T23:01:58.395Z,2.6
2018-05-06T23:04:58.473Z,2.6
2018-05-06T23:07:58.411Z,4.8
2018-05-06T23:10:58.624Z,2.7
2018-05-06T23:13:58.528Z,2.5
2018-05-06T23:16:58.614Z,2.6
2018-05-06T23:19:58.457Z,2.9
2018-05-06T23:22:58.551Z,2.7
2018-05-06T23:25:58.639Z,3.6
2018-05-06T23:28:58.680Z,2.4
2018-05-06T23:31:58.492Z,2.5
2018-05-06T23:34:58.533Z,3
2018-05-06T23:37:58.704Z,2.7
2018-05-06T23:40:58.532Z,3.5
2018-05-06T23:43:58.751Z,2.7
2018-05-06T23:46:58.454Z,2.7
2018-05-06T23:49:58.544Z,3
2018-05-06T23:52:58.578Z,2.8
2018-05-06T23:55:58.369Z,2.7
2018-05-06T23:58:58.396Z,2.7
